Time;durP1;ratioP1;P1;durP2;ratioP2;P2;SDS_P1;SDS_P2;PMS_P1;PMS_P2;Temp;Humidity;BMP_temperature;BMP_pressure;BME280_temperature;BME280_humidity;BME280_pressure;Samples;Min_cycle;Max_cycle;Signal;HPM_P1;HPM_P2
2023/12/08 00:00:56;;;;;;;;;;;;;;;;;;5096688;28;20384;-82
2023/12/08 00:03:22;;;;;;;;;;;;;;;;;;5095566;28;19916;-81
2023/12/08 00:05:48;;;;;;;;;;;;;;;;;;5096699;28;19938;-82
2023/12/08 00:08:14;;;;;;;;;;;;;;;;;;5097001;28;19923;-82
2023/12/08 00:10:41;;;;;;;;;;;;;;;;;;5096744;28;19908;-81
2023/12/08 00:13:07;;;;;;;;;;;;;;;;;;5096747;28;19930;-82
2023/12/08 00:15:33;;;;;;;;;;;;;;;;;;5096741;28;19914;-82
2023/12/08 00:17:59;;;;;;;;;;;;;;;;;;5096744;28;19922;-82
2023/12/08 00:20:25;;;;;;;;;;;;;;;;;;5096492;28;20300;-82
2023/12/08 00:22:52;;;;;;;;;;;;;;;;;;5096422;28;20287;-81
2023/12/08 00:25:18;;;;;;;;;;;;;;;;;;5096812;28;19908;-82
2023/12/08 00:27:44;;;;;;;;;;;;;;;;;;5096427;28;19912;-82
2023/12/08 00:30:11;;;;;;;;;;;;;;;;;;5096032;28;20406;-82
2023/12/08 00:32:38;;;;;;;;;;;;;;;;;;5096480;28;19908;-82
2023/12/08 00:35:04;;;;;;;;;;;;;;;;;;5096496;28;19935;-82
2023/12/08 00:37:30;;;;;;;;;;;;;;;;;;5096300;28;20396;-82
2023/12/08 00:39:56;;;;;;;;;;;;;;;;;;5096764;28;19908;-81
2023/12/08 00:42:22;;;;;;;;;;;;;;;;;;5096443;28;19908;-82
2023/12/08 00:44:49;;;;;;;;;;;;;;;;;;5095883;28;19908;-82
2023/12/08 00:47:15;;;;;;;;;;;;;;;;;;5096007;28;19957;-81
2023/12/08 00:49:41;;;;;;;;;;;;;;;;;;5096062;28;19916;-82
2023/12/08 00:52:07;;;;;;;;;;;;;;;;;;5096048;28;19908;-81
2023/12/08 00:54:33;;;;;;;;;;;;;;;;;;5093232;28;19923;-81
2023/12/08 00:57:00;;;;;;;;;;;;;;;;;;5095901;28;19908;-82
2023/12/08 00:59:26;;;;;;;;;;;;;;;;;;5095520;28;20361;-81
2023/12/08 01:01:52;;;;;;;;;;;;;;;;;;5096138;28;19908;-81
2023/12/08 01:04:18;;;;;;;;;;;;;;;;;;5095711;28;20349;-82
2023/12/08 01:06:45;;;;;;;;;;;;;;;;;;5095982;28;20311;-81
2023/12/08 01:09:12;;;;;;;;;;;;;;;;;;5095463;28;19985;-81
2023/12/08 01:11:38;;;;;;;;;;;;;;;;;;5095781;28;19916;-82
2023/12/08 01:14:05;;;;;;;;;;;;;;;;;;5095194;28;20380;-82
2023/12/08 01:16:31;;;;;;;;;;;;;;;;;;5095647;28;19952;-81
2023/12/08 01:18:57;;;;;;;;;;;;;;;;;;5095526;28;20361;-81
2023/12/08 01:21:23;;;;;;;;;;;;;;;;;;5095451;28;20377;-82
2023/12/08 01:23:49;;;;;;;;;;;;;;;;;;5095255;28;20379;-81
2023/12/08 01:26:16;;;;;;;;;;;;;;;;;;5128575;27;19909;-82
2023/12/08 01:28:42;;;;;;;;;;;;;;;;;;5094943;28;19924;-82
2023/12/08 01:31:08;;;;;;;;;;;;;;;;;;5095219;28;20296;-82
2023/12/08 01:33:34;;;;;;;;;;;;;;;;;;5095556;28;19936;-82
2023/12/08 01:36:00;;;;;;;;;;;;;;;;;;5095167;28;19915;-82
2023/12/08 01:38:28;;;;;;;;;;;;;;;;;;5095114;28;19914;-82
2023/12/08 01:40:54;;;;;;;;;;;;;;;;;;5128365;27;19912;-81
2023/12/08 01:43:20;;;;;;;;;;;;;;;;;;5094635;28;20379;-82
2023/12/08 01:45:47;;;;;;;;;;;;;;;;;;5093581;28;19912;-82
2023/12/08 01:48:13;;;;;;;;;;;;;;;;;;5094962;28;20261;-81
2023/12/08 01:50:39;;;;;;;;;;;;;;;;;;5095126;28;19919;-81
2023/12/08 01:53:06;;;;;;;;;;;;;;;;;;5093958;28;19912;-82
2023/12/08 01:55:32;;;;;;;;;;;;;;;;;;5094801;28;20409;-81
2023/12/08 01:57:58;;;;;;;;;;;;;;;;;;5094440;28;20370;-82
2023/12/08 02:00:24;;;;;;;;;;;;;;;;;;5094944;28;19930;-82
2023/12/08 02:02:51;;;;;;;;;;;;;;;;;;5094579;28;20295;-81
2023/12/08 02:05:17;;;;;;;;;;;;;;;;;;5092866;28;19908;-82
2023/12/08 02:07:43;;;;;;;;;;;;;;;;;;5094551;28;19932;-82
2023/12/08 02:10:10;;;;;;;;;;;;;;;;;;5094465;28;20276;-82
2023/12/08 02:12:36;;;;;;;;;;;;;;;;;;5094158;28;20278;-81
2023/12/08 02:15:02;;;;;;;;;;;;;;;;;;5094536;28;19908;-82
2023/12/08 02:17:28;;;;;;;;;;;;;;;;;;5094386;28;19909;-81
2023/12/08 02:19:54;;;;;;;;;;;;;;;;;;5094525;28;19953;-81
2023/12/08 02:22:21;;;;;;;;;;;;;;;;;;5094316;28;19914;-82
2023/12/08 02:24:47;;;;;;;;;;;;;;;;;;5094134;28;19995;-81
2023/12/08 02:27:13;;;;;;;;;;;;;;;;;;5094158;28;20102;-81
2023/12/08 02:29:39;;;;;;;;;;;;;;;;;;5094311;28;19916;-81
2023/12/08 02:32:05;;;;;;;;;;;;;;;;;;5094368;28;19908;-82
2023/12/08 02:34:32;;;;;;;;;;;;;;;;;;5094054;28;19914;-82
2023/12/08 02:36:58;;;;;;;;;;;;;;;;;;5094021;28;19918;-82
2023/12/08 02:39:24;;;;;;;;;;;;;;;;;;5093924;28;20392;-82
2023/12/08 02:41:50;;;;;;;;;;;;;;;;;;5093574;28;19931;-82
2023/12/08 02:44:16;;;;;;;;;;;;;;;;;;5093707;28;19908;-82
2023/12/08 02:46:43;;;;;;;;;;;;;;;;;;5093859;28;20365;-81
2023/12/08 02:49:09;;;;;;;;;;;;;;;;;;5093615;28;19916;-81
2023/12/08 02:51:35;;;;;;;;;;;;;;;;;;5092711;28;19908;-82
2023/12/08 02:54:01;;;;;;;;;;;;;;;;;;5093601;28;20300;-82
2023/12/08 02:56:27;;;;;;;;;;;;;;;;;;5093328;28;19908;-81
2023/12/08 02:58:53;;;;;;;;;;;;;;;;;;5093946;28;19918;-81
2023/12/08 03:01:20;;;;;;;;;;;;;;;;;;5093921;28;19919;-81
2023/12/08 03:03:46;;;;;;;;;;;;;;;;;;5093632;28;19908;-82
2023/12/08 03:06:12;;;;;;;;;;;;;;;;;;5093397;28;19920;-82
2023/12/08 03:08:38;;;;;;;;;;;;;;;;;;5093386;28;20326;-81
2023/12/08 03:11:04;;;;;;;;;;;;;;;;;;5092005;28;19912;-81
2023/12/08 03:13:30;;;;;;;;;;;;;;;;;;5093522;28;20262;-82
2023/12/08 03:15:57;;;;;;;;;;;;;;;;;;5093163;28;19915;-81
2023/12/08 03:18:23;;;;;;;;;;;;;;;;;;5092875;28;19960;-82
2023/12/08 03:20:49;;;;;;;;;;;;;;;;;;5093373;28;19909;-82
2023/12/08 03:23:15;;;;;;;;;;;;;;;;;;5093404;28;19933;-81
2023/12/08 03:25:41;;;;;;;;;;;;;;;;;;5093193;28;19961;-81
2023/12/08 03:28:08;;;;;;;;;;;;;;;;;;5093009;28;20372;-82
2023/12/08 03:30:34;;;;;;;;;;;;;;;;;;5093494;28;19912;-82
2023/12/08 03:33:00;;;;;;;;;;;;;;;;;;5093184;28;19908;-82
2023/12/08 03:35:26;;;;;;;;;;;;;;;;;;5093116;28;19908;-82
2023/12/08 03:37:52;;;;;;;;;;;;;;;;;;5092916;28;19908;-78
2023/12/08 03:40:18;;;;;;;;;;;;;;;;;;5092927;28;19909;-81
2023/12/08 03:42:44;;;;;;;;;;;;;;;;;;5093029;28;20317;-81
2023/12/08 03:45:11;;;;;;;;;;;;;;;;;;5092768;28;19915;-82
2023/12/08 03:47:37;;;;;;;;;;;;;;;;;;5093216;28;19912;-82
2023/12/08 03:50:03;;;;;;;;;;;;;;;;;;5093032;28;19932;-81
2023/12/08 03:52:29;;;;;;;;;;;;;;;;;;5092501;28;19908;-81
2023/12/08 03:54:55;;;;;;;;;;;;;;;;;;5093082;28;19912;-81
2023/12/08 03:57:22;;;;;;;;;;;;;;;;;;5093208;28;19952;-82
2023/12/08 03:59:48;;;;;;;;;;;;;;;;;;5093022;28;19912;-82
2023/12/08 04:02:14;;;;;;;;;;;;;;;;;;5092887;28;19912;-82
2023/12/08 04:04:40;;;;;;;;;;;;;;;;;;5093221;28;19914;-82
2023/12/08 04:07:07;;;;;;;;;;;;;;;;;;5092427;28;19965;-82
2023/12/08 04:09:36;;;;;;;;;;;;;;;;;;5091940;28;20382;-82
2023/12/08 04:12:02;;;;;;;;;;;;;;;;;;5092976;28;19919;-81
2023/12/08 04:14:28;;;;;;;;;;;;;;;;;;5092727;28;19908;-82
2023/12/08 04:16:54;;;;;;;;;;;;;;;;;;5092904;28;20364;-82
2023/12/08 04:19:21;;;;;;;;;;;;;;;;;;5092722;28;19918;-81
2023/12/08 04:21:47;;;;;;;;;;;;;;;;;;5092404;28;19908;-82
2023/12/08 04:24:13;;;;;;;;;;;;;;;;;;5092683;28;19908;-82
2023/12/08 04:26:39;;;;;;;;;;;;;;;;;;5092953;28;19908;-82
2023/12/08 04:29:05;;;;;;;;;;;;;;;;;;5092792;28;19916;-82
2023/12/08 04:31:32;;;;;;;;;;;;;;;;;;5096636;28;19916;-82
2023/12/08 04:33:58;;;;;;;;;;;;;;;;;;5096322;28;20306;-82
2023/12/08 04:36:24;;;;;;;;;;;;;;;;;;5096135;28;19916;-82
2023/12/08 04:38:50;;;;;;;;;;;;;;;;;;5096496;28;19912;-81
2023/12/08 04:41:16;;;;;;;;;;;;;;;;;;5096235;28;19908;-82
2023/12/08 04:43:42;;;;;;;;;;;;;;;;;;5096291;28;19957;-82
2023/12/08 04:46:09;;;;;;;;;;;;;;;;;;5096268;28;20391;-82
2023/12/08 04:48:35;;;;;;;;;;;;;;;;;;5096335;28;19920;-82
2023/12/08 04:51:02;;;;;;;;;;;;;;;;;;5095747;28;19909;-81
2023/12/08 04:53:28;;;;;;;;;;;;;;;;;;5094761;28;19912;-81
2023/12/08 04:55:54;;;;;;;;;;;;;;;;;;5096303;28;19912;-81
2023/12/08 04:58:20;;;;;;;;;;;;;;;;;;5095887;28;20382;-82
2023/12/08 05:00:47;;;;;;;;;;;;;;;;;;5096170;28;19915;-82
2023/12/08 05:03:13;;;;;;;;;;;;;;;;;;5095918;28;19915;-81
2023/12/08 05:05:39;;;;;;;;;;;;;;;;;;5095163;28;20550;-82
2023/12/08 05:08:05;;;;;;;;;;;;;;;;;;5096053;28;19908;-81
2023/12/08 05:10:32;;;;;;;;;;;;;;;;;;5077360;28;20369;-82
2023/12/08 05:12:58;;;;;;;;;;;;;;;;;;5096149;28;19915;-82
2023/12/08 05:15:24;;;;;;;;;;;;;;;;;;5094595;28;19919;-82
2023/12/08 05:17:50;;;;;;;;;;;;;;;;;;5095452;28;19937;-82
2023/12/08 05:20:17;;;;;;;;;;;;;;;;;;5095185;28;20269;-82
2023/12/08 05:22:43;;;;;;;;;;;;;;;;;;5095807;28;19952;-82
2023/12/08 05:25:09;;;;;;;;;;;;;;;;;;5075147;28;19909;-81
2023/12/08 05:27:35;;;;;;;;;;;;;;;;;;5075206;28;20300;-82
2023/12/08 05:30:02;;;;;;;;;;;;;;;;;;5075692;28;19920;-82
2023/12/08 05:32:28;;;;;;;;;;;;;;;;;;5107759;28;19931;-82
2023/12/08 05:34:54;;;;;;;;;;;;;;;;;;5075118;28;19908;-81
2023/12/08 05:37:20;;;;;;;;;;;;;;;;;;5074988;28;19909;-82
2023/12/08 05:39:47;;;;;;;;;;;;;;;;;;5074889;28;20291;-82
2023/12/08 05:42:13;;;;;;;;;;;;;;;;;;5074090;28;19908;-81
2023/12/08 05:44:39;;;;;;;;;;;;;;;;;;5081154;28;20372;-82
2023/12/08 05:47:05;;;;;;;;;;;;;;;;;;5095329;28;20269;-82
2023/12/08 05:49:31;;;;;;;;;;;;;;;;;;5094630;28;19927;-82
2023/12/08 05:51:58;;;;;;;;;;;;;;;;;;5094900;28;19916;-82
2023/12/08 05:54:24;;;;;;;;;;;;;;;;;;5094760;28;19912;-82
2023/12/08 05:56:50;;;;;;;;;;;;;;;;;;5094857;28;20383;-82
2023/12/08 05:59:16;;;;;;;;;;;;;;;;;;5095071;28;20032;-81
2023/12/08 06:01:42;;;;;;;;;;;;;;;;;;5094515;28;19934;-82
2023/12/08 06:04:08;;;;;;;;;;;;;;;;;;5094309;28;19915;-82
2023/12/08 06:06:35;;;;;;;;;;;;;;;;;;5093148;28;20003;-81
2023/12/08 06:09:01;;;;;;;;;;;;;;;;;;5093428;28;19916;-82
2023/12/08 06:11:28;;;;;;;;;;;;;;;;;;5094815;28;19919;-82
2023/12/08 06:13:54;;;;;;;;;;;;;;;;;;5094307;28;20025;-82
2023/12/08 06:16:20;;;;;;;;;;;;;;;;;;5094416;28;19915;-82
2023/12/08 06:18:46;;;;;;;;;;;;;;;;;;5094051;28;20395;-82
2023/12/08 06:21:13;;;;;;;;;;;;;;;;;;5094638;28;19908;-82
2023/12/08 06:23:39;;;;;;;;;;;;;;;;;;5094457;28;19912;-81
2023/12/08 06:26:05;;;;;;;;;;;;;;;;;;5094235;28;19908;-81
2023/12/08 06:28:32;;;;;;;;;;;;;;;;;;5094009;28;19930;-81
2023/12/08 06:30:58;;;;;;;;;;;;;;;;;;5094369;28;19914;-82
2023/12/08 06:33:24;;;;;;;;;;;;;;;;;;5093779;28;19912;-81
2023/12/08 06:35:51;;;;;;;;;;;;;;;;;;5094238;28;19919;-82
2023/12/08 06:38:17;;;;;;;;;;;;;;;;;;5094243;28;19908;-81
2023/12/08 06:40:43;;;;;;;;;;;;;;;;;;5093973;28;20393;-81
2023/12/08 06:43:09;;;;;;;;;;;;;;;;;;5094186;28;19914;-81
2023/12/08 06:45:35;;;;;;;;;;;;;;;;;;5093944;28;19908;-82
2023/12/08 06:48:03;;;;;;;;;;;;;;;;;;5093822;28;19916;-81
2023/12/08 06:50:30;;;;;;;;;;;;;;;;;;5093707;28;19916;-82
2023/12/08 06:52:56;;;;;;;;;;;;;;;;;;5094282;28;19977;-81
2023/12/08 06:55:23;;;;;;;;;;;;;;;;;;5094147;28;19908;-81
2023/12/08 06:57:49;;;;;;;;;;;;;;;;;;5094017;28;19908;-82
2023/12/08 07:00:16;;;;;;;;;;;;;;;;;;5093732;28;19908;-81
2023/12/08 07:02:42;;;;;;;;;;;;;;;;;;5093345;28;19918;-81
2023/12/08 07:05:08;;;;;;;;;;;;;;;;;;5093399;28;20333;-82
2023/12/08 07:07:35;;;;;;;;;;;;;;;;;;5092072;28;19926;-82
2023/12/08 07:10:01;;;;;;;;;;;;;;;;;;5093341;28;19926;-82
2023/12/08 07:12:27;;;;;;;;;;;;;;;;;;5092154;28;19915;-81
2023/12/08 07:14:54;;;;;;;;;;;;;;;;;;5093370;28;19908;-82
2023/12/08 07:17:20;;;;;;;;;;;;;;;;;;5092878;28;20320;-81
2023/12/08 07:19:46;;;;;;;;;;;;;;;;;;5084167;28;20389;-78
2023/12/08 07:22:12;;;;;;;;;;;;;;;;;;5088819;28;19935;-83
2023/12/08 07:24:38;;;;;;;;;;;;;;;;;;5091417;28;19916;-75
2023/12/08 07:27:05;;;;;;;;;;;;;;;;;;5088404;28;19912;-74
2023/12/08 07:29:31;;;;;;;;;;;;;;;;;;5088884;28;19920;-74
2023/12/08 07:31:57;;;;;;;;;;;;;;;;;;5084218;28;20374;-74
2023/12/08 07:34:24;;;;;;;;;;;;;;;;;;5098941;28;19908;-73
2023/12/08 07:36:50;;;;;;;;;;;;;;;;;;5072254;28;19919;-73
2023/12/08 07:39:17;;;;;;;;;;;;;;;;;;5088774;28;19916;-72
2023/12/08 07:41:43;;;;;;;;;;;;;;;;;;5090299;28;19919;-74
2023/12/08 07:44:10;;;;;;;;;;;;;;;;;;5091405;28;19916;-74
2023/12/08 07:46:36;;;;;;;;;;;;;;;;;;5108243;28;19919;-73
2023/12/08 07:49:03;;;;;;;;;;;;;;;;;;5089922;28;19924;-74
2023/12/08 07:51:30;;;;;;;;;;;;;;;;;;5089391;28;19916;-74
2023/12/08 07:53:56;;;;;;;;;;;;;;;;;;5089788;28;20295;-74
2023/12/08 07:56:22;;;;;;;;;;;;;;;;;;5089777;28;19918;-74
2023/12/08 07:58:48;;;;;;;;;;;;;;;;;;5091955;28;19914;-73
2023/12/08 08:01:15;;;;;;;;;;;;;;;;;;5089369;28;19912;-73
2023/12/08 08:03:41;;;;;;;;;;;;;;;;;;5090439;28;19908;-74
2023/12/08 08:06:07;;;;;;;;;;;;;;;;;;5077515;28;19921;-73
2023/12/08 08:08:33;;;;;;;;;;;;;;;;;;5093401;28;20381;-73
2023/12/08 08:10:59;;;;;;;;;;;;;;;;;;5075645;28;20281;-74
2023/12/08 08:13:26;;;;;;;;;;;;;;;;;;5091885;28;19913;-74
2023/12/08 08:15:52;;;;;;;;;;;;;;;;;;5094372;28;19912;-74
2023/12/08 08:18:18;;;;;;;;;;;;;;;;;;5094444;28;19912;-74
2023/12/08 08:20:44;;;;;;;;;;;;;;;;;;5108129;27;19916;-74
2023/12/08 08:23:10;;;;;;;;;;;;;;;;;;5093095;28;19912;-74
2023/12/08 08:25:37;;;;;;;;;;;;;;;;;;5090637;28;19913;-74
2023/12/08 08:28:03;;;;;;;;;;;;;;;;;;5090088;28;19920;-73
2023/12/08 08:30:29;;;;;;;;;;;;;;;;;;5113706;27;19921;-74
2023/12/08 08:32:55;;;;;;;;;;;;;;;;;;5090486;28;19914;-74
2023/12/08 08:35:22;;;;;;;;;;;;;;;;;;5095265;28;19912;-74
2023/12/08 08:37:48;;;;;;;;;;;;;;;;;;5095797;28;19916;-74
2023/12/08 08:40:14;;;;;;;;;;;;;;;;;;5093832;28;19916;-74
2023/12/08 08:42:40;;;;;;;;;;;;;;;;;;5093801;28;19912;-74
2023/12/08 08:45:06;;;;;;;;;;;;;;;;;;5095475;28;19916;-74
2023/12/08 08:47:33;;;;;;;;;;;;;;;;;;5095012;28;19912;-73
2023/12/08 08:49:59;;;;;;;;;;;;;;;;;;5085391;28;19920;-73
2023/12/08 08:52:25;;;;;;;;;;;;;;;;;;5094247;28;19908;-74
2023/12/08 08:54:51;;;;;;;;;;;;;;;;;;5091583;28;19926;-73
2023/12/08 08:57:18;;;;;;;;;;;;;;;;;;5093746;28;19912;-73
2023/12/08 08:59:44;;;;;;;;;;;;;;;;;;5090573;28;19908;-74
2023/12/08 09:02:10;;;;;;;;;;;;;;;;;;5087958;28;19978;-73
2023/12/08 09:04:36;;;;;;;;;;;;;;;;;;5094836;28;20327;-73
2023/12/08 09:07:03;;;;;;;;;;;;;;;;;;5081218;28;19966;-73
2023/12/08 09:09:29;;;;;;;;;;;;;;;;;;5074256;28;19923;-73
2023/12/08 09:11:55;;;;;;;;;;;;;;;;;;5076643;28;19980;-73
2023/12/08 09:14:21;;;;;;;;;;;;;;;;;;5094629;28;19912;-72
2023/12/08 09:16:48;;;;;;;;;;;;;;;;;;5093202;28;19912;-74
2023/12/08 09:19:14;;;;;;;;;;;;;;;;;;5093449;28;19912;-74
2023/12/08 09:21:40;;;;;;;;;;;;;;;;;;5089573;28;19919;-73
2023/12/08 09:24:06;;;;;;;;;;;;;;;;;;5090141;28;20382;-73
2023/12/08 09:26:32;;;;;;;;;;;;;;;;;;5094053;28;20364;-73
2023/12/08 09:28:59;;;;;;;;;;;;;;;;;;5092194;28;19920;-74
2023/12/08 09:31:25;;;;;;;;;;;;;;;;;;5091281;28;20368;-73
2023/12/08 09:33:51;;;;;;;;;;;;;;;;;;5089135;28;19912;-73
2023/12/08 09:36:17;;;;;;;;;;;;;;;;;;5078413;28;19908;-73
2023/12/08 09:38:44;;;;;;;;;;;;;;;;;;5094167;28;19912;-73
2023/12/08 09:41:10;;;;;;;;;;;;;;;;;;5080026;28;19908;-75
2023/12/08 09:43:37;;;;;;;;;;;;;;;;;;5073800;28;19912;-73
2023/12/08 09:46:03;;;;;;;;;;;;;;;;;;5092028;28;19908;-73
2023/12/08 09:48:29;;;;;;;;;;;;;;;;;;5093986;28;20357;-72
2023/12/08 09:50:55;;;;;;;;;;;;;;;;;;5088359;28;19908;-73
2023/12/08 09:53:21;;;;;;;;;;;;;;;;;;5089137;28;19912;-74
2023/12/08 09:55:47;;;;;;;;;;;;;;;;;;5092381;28;19916;-73
2023/12/08 09:58:14;;;;;;;;;;;;;;;;;;5079119;28;20191;-73
2023/12/08 10:00:41;;;;;;;;;;;;;;;;;;5076981;28;19968;-74
2023/12/08 10:03:08;;;;;;;;;;;;;;;;;;5091795;28;19908;-73
2023/12/08 10:05:35;;;;;;;;;;;;;;;;;;5093555;28;19908;-73
2023/12/08 10:08:01;;;;;;;;;;;;;;;;;;5086380;28;19919;-73
2023/12/08 10:10:27;;;;;;;;;;;;;;;;;;5106180;27;19935;-74
2023/12/08 10:12:53;;;;;;;;;;;;;;;;;;5090775;28;19912;-73
2023/12/08 10:15:20;;;;;;;;;;;;;;;;;;5087692;28;20055;-74
2023/12/08 10:17:47;;;;;;;;;;;;;;;;;;5091461;28;19953;-74
2023/12/08 10:20:13;;;;;;;;;;;;;;;;;;5091339;28;19993;-74
2023/12/08 10:22:39;;;;;;;;;;;;;;;;;;5092899;28;19909;-74
2023/12/08 10:25:06;;;;;;;;;;;;;;;;;;5088461;28;19922;-73
2023/12/08 10:27:32;;;;;;;;;;;;;;;;;;5093408;28;19915;-74
2023/12/08 10:29:58;;;;;;;;;;;;;;;;;;5091024;28;19926;-74
2023/12/08 10:32:24;;;;;;;;;;;;;;;;;;5090978;28;19908;-73
2023/12/08 10:34:50;;;;;;;;;;;;;;;;;;5093980;28;20280;-74
2023/12/08 10:37:16;;;;;;;;;;;;;;;;;;5092797;28;19919;-74
2023/12/08 10:39:43;;;;;;;;;;;;;;;;;;5092635;28;20280;-74
2023/12/08 10:42:09;;;;;;;;;;;;;;;;;;5083456;28;19923;-74
2023/12/08 10:44:35;;;;;;;;;;;;;;;;;;5084998;28;19965;-74
2023/12/08 10:47:01;;;;;;;;;;;;;;;;;;5091273;28;19918;-73
2023/12/08 10:49:27;;;;;;;;;;;;;;;;;;5090711;28;20281;-73
2023/12/08 10:51:53;;;;;;;;;;;;;;;;;;5091886;28;19912;-74
2023/12/08 10:54:20;;;;;;;;;;;;;;;;;;5092066;28;19965;-78
2023/12/08 10:56:46;;;;;;;;;;;;;;;;;;5092817;28;20356;-77
2023/12/08 10:59:12;;;;;;;;;;;;;;;;;;5084574;28;19908;-77
2023/12/08 11:01:38;;;;;;;;;;;;;;;;;;5084191;28;19920;-74
2023/12/08 11:04:05;;;;;;;;;;;;;;;;;;5092094;28;19922;-74
2023/12/08 11:06:32;;;;;;;;;;;;;;;;;;5075571;28;19920;-74
2023/12/08 11:08:59;;;;;;;;;;;;;;;;;;5071685;28;19999;-74
2023/12/08 11:11:26;;;;;;;;;;;;;;;;;;5072265;28;19916;-74
2023/12/08 11:13:53;;;;;;;;;;;;;;;;;;5072283;28;19909;-73
2023/12/08 11:16:19;;;;;;;;;;;;;;;;;;5072447;28;20300;-74
2023/12/08 11:18:45;;;;;;;;;;;;;;;;;;5072029;28;20291;-74
2023/12/08 11:21:11;;;;;;;;;;;;;;;;;;5072209;28;19937;-74
2023/12/08 11:23:38;;;;;;;;;;;;;;;;;;5080138;28;19919;-73
2023/12/08 11:26:04;;;;;;;;;;;;;;;;;;5091444;28;19912;-74
2023/12/08 11:28:31;;;;;;;;;;;;;;;;;;5092412;28;19957;-74
2023/12/08 11:30:57;;;;;;;;;;;;;;;;;;5092120;28;19916;-74
2023/12/08 11:33:23;;;;;;;;;;;;;;;;;;5080000;28;19919;-73
2023/12/08 11:35:50;;;;;;;;;;;;;;;;;;5092067;28;20281;-74
2023/12/08 11:38:17;;;;;;;;;;;;;;;;;;5071136;28;19919;-73
2023/12/08 11:40:43;;;;;;;;;;;;;;;;;;5072560;28;19916;-74
2023/12/08 11:43:09;;;;;;;;;;;;;;;;;;5072296;28;20311;-74
2023/12/08 11:45:35;;;;;;;;;;;;;;;;;;5110547;28;19908;-74
2023/12/08 11:48:01;;;;;;;;;;;;;;;;;;5071934;28;19965;-74
2023/12/08 11:50:28;;;;;;;;;;;;;;;;;;5071913;28;19922;-79
2023/12/08 11:52:54;;;;;;;;;;;;;;;;;;5071693;28;19913;-75
2023/12/08 11:55:20;;;;;;;;;;;;;;;;;;5072173;28;19908;-76
2023/12/08 11:57:46;;;;;;;;;;;;;;;;;;5090268;28;19918;-73
2023/12/08 12:00:14;;;;;;;;;;;;;;;;;;5092070;28;20288;-73
2023/12/08 12:02:40;;;;;;;;;;;;;;;;;;5092043;28;20372;-72
2023/12/08 12:05:06;;;;;;;;;;;;;;;;;;5072786;28;19913;-72
2023/12/08 12:07:32;;;;;;;;;;;;;;;;;;5071406;28;19920;-73
2023/12/08 12:09:58;;;;;;;;;;;;;;;;;;5071469;28;20395;-77
2023/12/08 12:12:25;;;;;;;;;;;;;;;;;;5090565;28;19912;-78
2023/12/08 12:14:51;;;;;;;;;;;;;;;;;;5082637;28;20296;-76
2023/12/08 12:17:18;;;;;;;;;;;;;;;;;;5071457;28;19938;-76
2023/12/08 12:19:45;;;;;;;;;;;;;;;;;;5071701;28;19909;-75
2023/12/08 12:22:11;;;;;;;;;;;;;;;;;;5071305;28;20304;-79
2023/12/08 12:24:37;;;;;;;;;;;;;;;;;;5087368;28;19914;-75
2023/12/08 12:27:03;;;;;;;;;;;;;;;;;;5085313;28;19912;-76
2023/12/08 12:29:29;;;;;;;;;;;;;;;;;;5071786;28;19916;-76
2023/12/08 12:31:56;;;;;;;;;;;;;;;;;;5071692;28;19916;-75
2023/12/08 12:34:22;;;;;;;;;;;;;;;;;;5071227;28;19909;-75
2023/12/08 12:36:48;;;;;;;;;;;;;;;;;;5071276;28;20381;-75
2023/12/08 12:39:14;;;;;;;;;;;;;;;;;;5077071;28;20410;-76
2023/12/08 12:41:40;;;;;;;;;;;;;;;;;;5086524;28;19926;-74
2023/12/08 12:44:06;;;;;;;;;;;;;;;;;;5093263;28;19912;-74
2023/12/08 12:46:33;;;;;;;;;;;;;;;;;;5089112;28;19916;-75
2023/12/08 12:48:59;;;;;;;;;;;;;;;;;;5090734;28;20391;-80
2023/12/08 12:51:25;;;;;;;;;;;;;;;;;;5093847;28;20389;-74
2023/12/08 12:53:51;;;;;;;;;;;;;;;;;;5094817;28;19974;-75
2023/12/08 12:56:18;;;;;;;;;;;;;;;;;;5095313;28;19914;-74
2023/12/08 12:58:44;;;;;;;;;;;;;;;;;;5094941;28;19912;-74
2023/12/08 13:01:10;;;;;;;;;;;;;;;;;;5093001;28;19909;-75
2023/12/08 13:03:37;;;;;;;;;;;;;;;;;;5085924;28;19912;-74
2023/12/08 13:06:06;;;;;;;;;;;;;;;;;;5084939;28;19930;-75
2023/12/08 13:08:32;;;;;;;;;;;;;;;;;;5095086;28;19908;-75
2023/12/08 13:10:58;;;;;;;;;;;;;;;;;;5093787;28;19920;-75
2023/12/08 13:13:25;;;;;;;;;;;;;;;;;;5094752;28;19912;-74
2023/12/08 13:15:51;;;;;;;;;;;;;;;;;;5081190;28;19908;-75
2023/12/08 13:18:17;;;;;;;;;;;;;;;;;;5074129;28;19909;-75
2023/12/08 13:20:44;;;;;;;;;;;;;;;;;;5075315;28;19961;-75
2023/12/08 13:23:10;;;;;;;;;;;;;;;;;;5127243;27;19912;-75
2023/12/08 13:25:36;;;;;;;;;;;;;;;;;;5094474;28;19908;-75
2023/12/08 13:28:03;;;;;;;;;;;;;;;;;;5093307;28;19912;-75
2023/12/08 13:30:29;;;;;;;;;;;;;;;;;;5094352;28;20396;-77
2023/12/08 13:32:55;;;;;;;;;;;;;;;;;;5079969;28;19977;-78
2023/12/08 13:35:21;;;;;;;;;;;;;;;;;;5074638;28;19927;-83
2023/12/08 13:37:47;;;;;;;;;;;;;;;;;;5074529;28;19916;-74
2023/12/08 13:40:13;;;;;;;;;;;;;;;;;;5106594;28;20284;-76
2023/12/08 13:42:40;;;;;;;;;;;;;;;;;;5074434;28;19914;-74
2023/12/08 13:45:06;;;;;;;;;;;;;;;;;;5098416;28;20384;-74
2023/12/08 13:47:32;;;;;;;;;;;;;;;;;;5114529;28;19914;-77
2023/12/08 13:49:58;;;;;;;;;;;;;;;;;;5105830;28;19920;-80
2023/12/08 13:52:24;;;;;;;;;;;;;;;;;;5114304;28;19918;-81
2023/12/08 13:54:50;;;;;;;;;;;;;;;;;;5107316;28;19916;-82
2023/12/08 13:57:17;;;;;;;;;;;;;;;;;;5073532;28;19909;-82
2023/12/08 13:59:43;;;;;;;;;;;;;;;;;;5087177;28;19919;-80
2023/12/08 14:02:09;;;;;;;;;;;;;;;;;;5092671;28;19912;-82
2023/12/08 14:04:35;;;;;;;;;;;;;;;;;;5093695;28;19912;-82
2023/12/08 14:07:01;;;;;;;;;;;;;;;;;;5088928;28;20408;-81
2023/12/08 14:09:27;;;;;;;;;;;;;;;;;;5092616;28;19932;-80
2023/12/08 14:11:54;;;;;;;;;;;;;;;;;;5091756;28;19916;-80
2023/12/08 14:14:20;;;;;;;;;;;;;;;;;;5092024;28;19924;-80
2023/12/08 14:16:47;;;;;;;;;;;;;;;;;;5079479;28;20013;-81
2023/12/08 14:19:13;;;;;;;;;;;;;;;;;;5073645;28;19908;-82
2023/12/08 14:21:43;;;;;;;;;;;;;;;;;;5088370;28;20564;-80
2023/12/08 14:24:09;;;;;;;;;;;;;;;;;;5089680;28;19915;-80
2023/12/08 14:26:35;;;;;;;;;;;;;;;;;;5089007;28;19956;-81
2023/12/08 14:29:01;;;;;;;;;;;;;;;;;;5090957;28;19997;-80
2023/12/08 14:31:27;;;;;;;;;;;;;;;;;;5093110;28;19937;-81
2023/12/08 14:33:53;;;;;;;;;;;;;;;;;;5093281;28;19912;-79
2023/12/08 14:36:20;;;;;;;;;;;;;;;;;;5093301;28;19908;-79
2023/12/08 14:38:47;;;;;;;;;;;;;;;;;;5090898;28;19913;-79
2023/12/08 14:41:13;;;;;;;;;;;;;;;;;;5078981;28;19919;-79
2023/12/08 14:43:39;;;;;;;;;;;;;;;;;;5092396;28;19916;-76
2023/12/08 14:46:06;;;;;;;;;;;;;;;;;;5077800;28;19913;-75
2023/12/08 14:48:32;;;;;;;;;;;;;;;;;;5090526;28;19909;-75
2023/12/08 14:50:58;;;;;;;;;;;;;;;;;;5096061;28;19927;-75
2023/12/08 14:53:25;;;;;;;;;;;;;;;;;;5091707;28;19924;-75
2023/12/08 14:55:51;;;;;;;;;;;;;;;;;;5091397;28;19919;-76
2023/12/08 14:58:17;;;;;;;;;;;;;;;;;;5087215;28;20357;-77
2023/12/08 15:00:43;;;;;;;;;;;;;;;;;;5091240;28;19912;-77
2023/12/08 15:03:09;;;;;;;;;;;;;;;;;;5090344;28;19912;-76
2023/12/08 15:05:36;;;;;;;;;;;;;;;;;;5091972;28;20387;-76
2023/12/08 15:08:02;;;;;;;;;;;;;;;;;;5091138;28;19922;-76
2023/12/08 15:10:28;;;;;;;;;;;;;;;;;;5093035;28;19957;-75
2023/12/08 15:12:54;;;;;;;;;;;;;;;;;;5088482;28;19916;-76
2023/12/08 15:15:20;;;;;;;;;;;;;;;;;;5120466;27;19918;-76
2023/12/08 15:17:47;;;;;;;;;;;;;;;;;;5091272;28;20297;-75
2023/12/08 15:20:13;;;;;;;;;;;;;;;;;;5092244;28;19912;-76
2023/12/08 15:22:39;;;;;;;;;;;;;;;;;;5091176;28;19916;-76
2023/12/08 15:25:06;;;;;;;;;;;;;;;;;;5091666;28;19912;-76
2023/12/08 15:27:33;;;;;;;;;;;;;;;;;;5091366;28;19912;-76
2023/12/08 15:29:59;;;;;;;;;;;;;;;;;;5090623;28;19920;-76
2023/12/08 15:32:26;;;;;;;;;;;;;;;;;;5090840;28;20304;-76
2023/12/08 15:34:53;;;;;;;;;;;;;;;;;;5091508;28;19940;-76
2023/12/08 15:37:19;;;;;;;;;;;;;;;;;;5091302;28;20342;-76
2023/12/08 15:39:45;;;;;;;;;;;;;;;;;;5091654;28;19934;-76
2023/12/08 15:42:11;;;;;;;;;;;;;;;;;;5091033;28;19916;-75
2023/12/08 15:44:37;;;;;;;;;;;;;;;;;;5088843;28;19912;-75
2023/12/08 15:47:04;;;;;;;;;;;;;;;;;;5092006;28;19912;-76
2023/12/08 15:49:30;;;;;;;;;;;;;;;;;;5073742;28;19942;-76
2023/12/08 15:51:56;;;;;;;;;;;;;;;;;;5084970;28;19914;-76
2023/12/08 15:54:22;;;;;;;;;;;;;;;;;;5092380;28;19915;-76
2023/12/08 15:56:49;;;;;;;;;;;;;;;;;;5092359;28;19914;-75
2023/12/08 15:59:15;;;;;;;;;;;;;;;;;;5093007;28;19916;-75
2023/12/08 16:01:42;;;;;;;;;;;;;;;;;;5092096;28;19908;-75
2023/12/08 16:04:08;;;;;;;;;;;;;;;;;;5092287;28;19919;-75
2023/12/08 16:06:34;;;;;;;;;;;;;;;;;;5091598;28;20044;-76
2023/12/08 16:09:02;;;;;;;;;;;;;;;;;;5092527;28;19930;-75
2023/12/08 16:11:28;;;;;;;;;;;;;;;;;;5090266;28;19916;-76
2023/12/08 16:13:54;;;;;;;;;;;;;;;;;;5090539;28;19975;-76
2023/12/08 16:16:23;;;;;;;;;;;;;;;;;;5092613;28;19914;-76
2023/12/08 16:18:50;;;;;;;;;;;;;;;;;;5092418;28;20280;-75
2023/12/08 16:21:16;;;;;;;;;;;;;;;;;;5088461;28;19964;-76
2023/12/08 16:23:42;;;;;;;;;;;;;;;;;;5087340;28;19908;-76
2023/12/08 16:26:09;;;;;;;;;;;;;;;;;;5096835;28;20262;-76
2023/12/08 16:28:35;;;;;;;;;;;;;;;;;;5093708;28;19916;-76
2023/12/08 16:31:01;;;;;;;;;;;;;;;;;;5092987;28;19928;-77
2023/12/08 16:33:27;;;;;;;;;;;;;;;;;;5095097;28;19912;-76
2023/12/08 16:35:54;;;;;;;;;;;;;;;;;;5096043;28;19915;-76
2023/12/08 16:38:20;;;;;;;;;;;;;;;;;;5096308;28;19912;-76